createdAt,value
2023-01-17T00:01:50.736Z,99.90
2023-01-17T00:04:36.454Z,99.90
2023-01-17T00:07:21.779Z,99.90
2023-01-17T00:09:54.536Z,99.90
2023-01-17T00:12:22.465Z,99.90
2023-01-17T00:14:49.256Z,99.90
2023-01-17T00:17:16.289Z,99.90
2023-01-17T00:20:01.577Z,99.90
2023-01-17T00:22:49.795Z,99.90
2023-01-17T00:25:38.474Z,99.90
2023-01-17T00:28:05.990Z,99.90
2023-01-17T00:30:33.273Z,99.90
2023-01-17T00:33:00.507Z,99.90
2023-01-17T00:35:29.797Z,99.90
2023-01-17T00:38:10.192Z,99.90
2023-01-17T00:40:39.913Z,99.90
2023-01-17T00:43:26.244Z,99.90
2023-01-17T00:46:12.183Z,99.90
2023-01-17T00:48:58.571Z,99.90
2023-01-17T00:51:44.867Z,99.90
2023-01-17T00:54:30.438Z,99.90
2023-01-17T00:57:16.440Z,99.90
2023-01-17T01:00:01.745Z,99.90
2023-01-17T01:02:47.711Z,99.90
2023-01-17T01:05:34.068Z,99.90
2023-01-17T01:08:20.784Z,99.90
2023-01-17T01:11:07.839Z,99.90
2023-01-17T01:13:53.743Z,99.90
2023-01-17T01:16:39.138Z,99.90
2023-01-17T01:19:24.988Z,99.90
2023-01-17T01:22:10.159Z,99.90
2023-01-17T01:24:55.536Z,99.90
2023-01-17T01:27:41.179Z,99.90
2023-01-17T01:30:26.953Z,99.90
2023-01-17T01:33:12.176Z,99.90
2023-01-17T01:35:39.036Z,99.90
2023-01-17T01:38:05.816Z,99.90
2023-01-17T01:40:32.729Z,99.90
2023-01-17T01:43:01.156Z,99.90
2023-01-17T01:45:30.455Z,99.90
2023-01-17T01:48:18.625Z,99.90
2023-01-17T01:50:47.241Z,99.90
2023-01-17T01:53:14.583Z,99.90
2023-01-17T01:55:44.613Z,99.90
2023-01-17T01:58:16.909Z,99.90
2023-01-17T02:00:43.834Z,99.90
2023-01-17T02:03:34.586Z,99.90
2023-01-17T02:06:08.751Z,99.90
2023-01-17T02:08:35.949Z,99.90
2023-01-17T02:11:03.726Z,99.90
2023-01-17T02:13:31.481Z,99.90
2023-01-17T02:16:09.055Z,99.90
2023-01-17T02:18:54.221Z,99.90
2023-01-17T02:21:29.267Z,99.90
2023-01-17T02:24:14.614Z,99.90
2023-01-17T02:26:46.306Z,99.90
2023-01-17T02:29:50.627Z,99.90
2023-01-17T02:32:23.070Z,99.90
2023-01-17T02:35:01.561Z,99.90
2023-01-17T02:37:44.284Z,99.90
2023-01-17T02:40:17.588Z,99.90
2023-01-17T02:42:50.519Z,99.90
2023-01-17T02:45:21.426Z,99.90
2023-01-17T02:47:48.232Z,99.90
2023-01-17T02:50:22.495Z,99.90
2023-01-17T02:52:49.324Z,99.90
2023-01-17T02:55:50.121Z,99.90
2023-01-17T02:58:40.093Z,99.90
2023-01-17T03:01:16.136Z,99.90
2023-01-17T03:03:58.638Z,99.90
2023-01-17T03:06:46.275Z,99.90
2023-01-17T03:09:15.510Z,99.90
2023-01-17T03:11:43.632Z,99.90
2023-01-17T03:14:10.472Z,99.90
2023-01-17T03:16:37.336Z,99.90
2023-01-17T03:19:04.242Z,99.90
2023-01-17T03:21:31.113Z,99.90
2023-01-17T03:23:57.951Z,99.90
2023-01-17T03:26:24.777Z,99.90
2023-01-17T03:28:51.764Z,99.90
2023-01-17T03:31:19.969Z,99.90
2023-01-17T03:33:46.875Z,99.90
2023-01-17T03:36:13.707Z,99.90
2023-01-17T03:38:40.693Z,99.90
2023-01-17T03:41:08.076Z,99.90
2023-01-17T03:43:34.954Z,99.90
2023-01-17T03:46:25.267Z,99.90
2023-01-17T03:48:52.344Z,99.90
2023-01-17T03:51:19.166Z,99.90
2023-01-17T03:53:49.993Z,99.90
2023-01-17T03:56:16.873Z,99.90
2023-01-17T03:58:43.681Z,99.90
2023-01-17T04:01:11.605Z,99.90
2023-01-17T04:03:40.087Z,99.90
2023-01-17T04:06:07.132Z,99.90
2023-01-17T04:08:34.023Z,99.90
2023-01-17T04:11:00.922Z,99.90
2023-01-17T04:13:27.732Z,99.90
2023-01-17T04:15:54.663Z,99.90
2023-01-17T04:18:23.756Z,99.90
2023-01-17T04:20:51.458Z,99.90
2023-01-17T04:23:18.516Z,99.90
2023-01-17T04:25:45.489Z,99.90
2023-01-17T04:28:12.680Z,99.90
2023-01-17T04:30:39.549Z,99.90
2023-01-17T04:33:06.421Z,99.90
2023-01-17T04:35:33.543Z,99.90
2023-01-17T04:38:00.383Z,99.90
2023-01-17T04:40:27.253Z,99.90
2023-01-17T04:42:54.289Z,99.90
2023-01-17T04:45:21.577Z,99.90
2023-01-17T04:47:48.435Z,99.90
2023-01-17T04:50:15.449Z,99.90
2023-01-17T04:52:42.261Z,99.90
2023-01-17T04:55:09.338Z,99.90
2023-01-17T04:57:36.401Z,99.90
2023-01-17T05:00:03.835Z,99.90
2023-01-17T05:02:31.032Z,99.90
2023-01-17T05:04:58.012Z,99.90
2023-01-17T05:07:24.801Z,99.90
2023-01-17T05:09:51.946Z,99.90
2023-01-17T05:12:18.734Z,99.90
2023-01-17T05:14:45.673Z,99.90
2023-01-17T05:17:12.552Z,99.90
2023-01-17T05:19:39.381Z,99.90
2023-01-17T05:22:15.120Z,99.90
2023-01-17T05:24:45.787Z,99.90
2023-01-17T05:27:13.527Z,99.90
2023-01-17T05:29:40.820Z,99.90
2023-01-17T05:32:07.912Z,99.90
2023-01-17T05:34:35.041Z,99.90
2023-01-17T05:37:02.065Z,99.90
2023-01-17T05:39:30.819Z,99.90
2023-01-17T05:41:58.129Z,99.90
2023-01-17T05:44:24.997Z,99.90
2023-01-17T05:46:51.793Z,99.90
2023-01-17T05:49:19.151Z,99.90
2023-01-17T05:51:46.032Z,99.90
2023-01-17T05:54:12.980Z,99.90
2023-01-17T05:56:39.788Z,99.90
2023-01-17T05:59:06.744Z,99.90
2023-01-17T06:01:33.599Z,99.90
2023-01-17T06:04:00.408Z,99.90
2023-01-17T06:06:27.341Z,99.90
2023-01-17T06:08:54.139Z,99.90
2023-01-17T06:11:20.905Z,99.90
2023-01-17T06:13:49.438Z,99.90
2023-01-17T06:16:16.344Z,99.90
2023-01-17T06:18:43.203Z,99.90
2023-01-17T06:21:10.272Z,99.40
2023-01-17T06:23:37.209Z,99.10
2023-01-17T06:26:04.710Z,99.20
2023-01-17T06:28:32.137Z,99.10
2023-01-17T06:30:59.977Z,98.80
2023-01-17T06:33:27.042Z,98.80
2023-01-17T06:35:54.074Z,98.10
2023-01-17T06:38:21.273Z,98.10
2023-01-17T06:40:48.183Z,97.60
2023-01-17T06:43:15.044Z,97.70
2023-01-17T06:45:41.842Z,98.20
2023-01-17T06:48:08.763Z,98.40
2023-01-17T06:50:35.838Z,98.70
2023-01-17T06:53:05.033Z,99.60
2023-01-17T06:55:33.630Z,99.90
2023-01-17T06:58:00.768Z,99.90
2023-01-17T07:00:28.868Z,99.90
2023-01-17T07:02:55.696Z,99.90
2023-01-17T07:05:22.592Z,99.90
2023-01-17T07:07:49.440Z,99.90
2023-01-17T07:10:16.801Z,99.90
2023-01-17T07:12:43.591Z,99.90
2023-01-17T07:15:11.036Z,99.90
2023-01-17T07:17:38.299Z,99.90
2023-01-17T07:20:06.750Z,99.90
2023-01-17T07:22:33.517Z,99.90
2023-01-17T07:25:00.509Z,99.90
2023-01-17T07:27:30.278Z,99.90
2023-01-17T07:29:57.668Z,99.90
2023-01-17T07:32:26.513Z,99.90
2023-01-17T07:34:54.814Z,99.90
2023-01-17T07:37:21.984Z,99.90
2023-01-17T07:39:49.347Z,99.90
2023-01-17T07:42:16.202Z,99.90
2023-01-17T07:44:44.904Z,99.90
2023-01-17T07:47:12.302Z,99.90
2023-01-17T07:49:39.455Z,99.90
2023-01-17T07:52:09.530Z,99.90
2023-01-17T07:54:36.324Z,99.90
2023-01-17T07:57:03.719Z,99.90
2023-01-17T07:59:30.601Z,99.90
2023-01-17T08:01:57.528Z,99.90
2023-01-17T08:04:28.977Z,99.90
2023-01-17T08:06:55.822Z,99.90
2023-01-17T08:09:22.628Z,99.90
2023-01-17T08:11:49.514Z,99.90
2023-01-17T08:14:16.298Z,99.90
2023-01-17T08:16:43.297Z,99.90
2023-01-17T08:19:10.465Z,99.90
2023-01-17T08:21:37.646Z,99.90
2023-01-17T08:24:04.767Z,99.90
2023-01-17T08:26:31.635Z,99.90
2023-01-17T08:29:00.492Z,99.90
2023-01-17T08:31:30.122Z,99.90
2023-01-17T08:33:57.543Z,99.90
2023-01-17T08:36:28.576Z,99.90
2023-01-17T08:38:55.534Z,99.90
2023-01-17T08:41:24.242Z,99.90
2023-01-17T08:43:52.117Z,99.90
2023-01-17T08:46:19.509Z,99.90
2023-01-17T08:48:46.610Z,99.90
2023-01-17T08:51:13.710Z,99.90
2023-01-17T08:53:40.697Z,99.90
2023-01-17T08:56:07.676Z,99.90
2023-01-17T08:58:35.794Z,99.90
2023-01-17T09:01:04.485Z,99.90
2023-01-17T09:03:32.602Z,99.90
2023-01-17T09:06:07.959Z,99.90
2023-01-17T09:08:35.653Z,99.90
2023-01-17T09:11:09.671Z,99.90
2023-01-17T09:13:37.739Z,99.90
2023-01-17T09:16:05.165Z,99.90
2023-01-17T09:18:33.087Z,99.90
2023-01-17T09:21:00.153Z,99.90
2023-01-17T09:23:29.806Z,99.90
2023-01-17T09:25:59.156Z,99.90
2023-01-17T09:28:27.387Z,99.90
2023-01-17T09:30:54.755Z,99.90
2023-01-17T09:33:24.334Z,99.90
2023-01-17T09:35:51.281Z,99.90
2023-01-17T09:38:18.173Z,99.90
2023-01-17T09:40:47.969Z,99.90
2023-01-17T09:43:32.621Z,99.90
2023-01-17T09:45:59.668Z,99.90
2023-01-17T09:48:38.624Z,99.90
2023-01-17T09:51:15.940Z,99.90
2023-01-17T09:53:43.960Z,99.90
2023-01-17T09:56:15.961Z,99.90
2023-01-17T09:59:08.494Z,99.90
2023-01-17T10:01:54.274Z,99.90
2023-01-17T10:04:39.456Z,99.90
2023-01-17T10:07:22.492Z,99.90
2023-01-17T10:10:27.146Z,99.90
2023-01-17T10:13:04.383Z,99.90
2023-01-17T10:16:10.726Z,99.90
2023-01-17T10:19:16.027Z,99.90
2023-01-17T10:22:12.037Z,99.90
2023-01-17T10:24:53.626Z,99.90
2023-01-17T10:27:35.153Z,99.90
2023-01-17T10:30:12.512Z,99.90
2023-01-17T10:32:46.437Z,99.90
2023-01-17T10:35:36.888Z,99.90
2023-01-17T10:38:07.056Z,99.90
2023-01-17T10:40:45.840Z,99.90
2023-01-17T10:43:29.899Z,99.90
2023-01-17T10:45:57.695Z,99.90
2023-01-17T10:48:40.079Z,99.90
2023-01-17T10:51:16.205Z,99.90
2023-01-17T10:54:01.781Z,99.90
2023-01-17T10:56:30.043Z,99.90
2023-01-17T10:59:31.223Z,99.90
2023-01-17T11:01:59.021Z,99.90
2023-01-17T11:04:41.873Z,99.90
2023-01-17T11:07:19.530Z,99.90
2023-01-17T11:09:49.778Z,99.90
2023-01-17T11:12:40.938Z,99.90
2023-01-17T11:15:10.837Z,99.90
2023-01-17T11:17:45.497Z,99.90
2023-01-17T11:20:12.289Z,99.90
2023-01-17T11:22:39.370Z,99.90
2023-01-17T11:25:07.127Z,99.90
2023-01-17T11:27:36.380Z,99.90
2023-01-17T11:30:19.405Z,99.90
2023-01-17T11:33:16.352Z,99.90
2023-01-17T11:35:46.109Z,99.90
2023-01-17T11:38:19.775Z,99.90
2023-01-17T11:40:48.984Z,99.90
2023-01-17T11:43:22.783Z,99.90
2023-01-17T11:46:15.305Z,99.90
2023-01-17T11:48:46.899Z,99.90
2023-01-17T11:51:24.693Z,99.90
2023-01-17T11:53:54.140Z,99.80
2023-01-17T11:56:36.584Z,98.60
2023-01-17T11:59:30.199Z,97.70
2023-01-17T12:02:21.904Z,97.00
2023-01-17T12:05:01.632Z,97.00
2023-01-17T12:08:17.309Z,96.70
2023-01-17T12:10:55.870Z,96.40
2023-01-17T12:14:01.098Z,96.30
2023-01-17T12:16:33.940Z,96.10
2023-01-17T12:19:26.452Z,96.30
2023-01-17T12:22:00.179Z,96.40
2023-01-17T12:24:50.503Z,96.60
2023-01-17T12:27:26.341Z,97.00
2023-01-17T12:30:08.572Z,96.60
2023-01-17T12:32:56.530Z,96.80
2023-01-17T12:35:31.718Z,96.90
2023-01-17T12:38:27.325Z,97.50
2023-01-17T12:41:12.308Z,97.80
2023-01-17T12:43:44.175Z,97.50
2023-01-17T12:46:21.296Z,97.60
2023-01-17T12:48:52.815Z,97.80
2023-01-17T12:51:27.702Z,97.90
2023-01-17T12:54:21.353Z,98.60
2023-01-17T12:57:05.236Z,98.10
2023-01-17T12:59:54.821Z,97.60
2023-01-17T13:02:45.130Z,96.50
2023-01-17T13:05:32.246Z,96.30
2023-01-17T13:08:24.503Z,95.10
2023-01-17T13:10:59.161Z,94.20
2023-01-17T13:13:28.902Z,94.20
2023-01-17T13:16:18.374Z,94.10
2023-01-17T13:18:47.559Z,94.00
2023-01-17T13:21:26.010Z,92.90
2023-01-17T13:24:03.766Z,92.80
2023-01-17T13:26:55.655Z,93.00
2023-01-17T13:29:31.458Z,92.90
2023-01-17T13:32:37.105Z,92.50
2023-01-17T13:35:33.663Z,92.60
2023-01-17T13:38:33.017Z,92.50
2023-01-17T13:41:57.270Z,92.50
2023-01-17T13:44:27.886Z,92.20
2023-01-17T13:47:08.067Z,91.80
2023-01-17T13:49:41.165Z,91.80
2023-01-17T13:52:19.958Z,91.50
2023-01-17T13:55:07.107Z,91.50
2023-01-17T13:57:43.500Z,91.50
2023-01-17T14:00:16.144Z,92.00
2023-01-17T14:02:43.554Z,92.10
2023-01-17T14:05:23.073Z,91.90
2023-01-17T14:08:00.812Z,91.30
2023-01-17T14:10:34.456Z,91.40
2023-01-17T14:13:03.038Z,90.80
2023-01-17T14:15:33.590Z,90.70
2023-01-17T14:18:05.817Z,90.10
2023-01-17T14:20:45.084Z,90.20
2023-01-17T14:23:26.122Z,90.20
2023-01-17T14:25:53.452Z,90.50
2023-01-17T14:28:26.398Z,90.80
2023-01-17T14:30:55.952Z,90.40
2023-01-17T14:33:29.883Z,90.80
2023-01-17T14:36:00.811Z,91.30
2023-01-17T14:38:29.947Z,91.90
2023-01-17T14:41:09.497Z,92.10
2023-01-17T14:43:40.978Z,92.00
2023-01-17T14:46:25.842Z,92.20
2023-01-17T14:49:15.251Z,91.90
2023-01-17T14:51:42.102Z,91.80
2023-01-17T14:54:22.598Z,91.30
2023-01-17T14:56:49.466Z,91.80
2023-01-17T14:59:21.803Z,91.50
2023-01-17T15:02:07.562Z,91.20
2023-01-17T15:04:39.343Z,91.10
2023-01-17T15:07:07.629Z,90.80
2023-01-17T15:09:38.079Z,91.10
2023-01-17T15:12:08.320Z,90.80
2023-01-17T15:14:41.563Z,90.90
2023-01-17T15:17:17.597Z,91.20
2023-01-17T15:19:48.118Z,91.50
2023-01-17T15:22:16.263Z,91.40
2023-01-17T15:24:44.664Z,91.30
2023-01-17T15:27:16.832Z,91.70
2023-01-17T15:29:45.452Z,92.00
2023-01-17T15:32:32.655Z,92.50
2023-01-17T15:35:02.522Z,92.80
2023-01-17T15:37:34.800Z,93.10
2023-01-17T15:40:07.978Z,93.60
2023-01-17T15:42:38.493Z,93.50
2023-01-17T15:45:09.349Z,93.70
2023-01-17T15:47:38.658Z,93.70
2023-01-17T15:50:28.530Z,94.30
2023-01-17T15:52:58.885Z,94.60
2023-01-17T15:55:33.303Z,94.90
2023-01-17T15:58:00.904Z,95.00
2023-01-17T16:00:37.687Z,95.20
2023-01-17T16:03:20.792Z,95.20
2023-01-17T16:05:48.237Z,95.30
2023-01-17T16:08:31.364Z,95.70
2023-01-17T16:11:03.795Z,96.10
2023-01-17T16:13:37.784Z,96.40
2023-01-17T16:16:23.983Z,96.40
2023-01-17T16:19:01.398Z,96.80
2023-01-17T16:21:30.555Z,97.10
2023-01-17T16:23:58.113Z,97.40
2023-01-17T16:26:25.365Z,97.80
2023-01-17T16:28:52.482Z,98.00
2023-01-17T16:31:19.667Z,98.10
2023-01-17T16:33:49.314Z,98.40
2023-01-17T16:36:17.136Z,98.40
2023-01-17T16:38:45.738Z,98.50
2023-01-17T16:41:12.947Z,98.70
2023-01-17T16:43:39.835Z,98.70
2023-01-17T16:46:07.183Z,98.90
2023-01-17T16:48:34.113Z,99.10
2023-01-17T16:51:06.290Z,99.30
2023-01-17T16:53:33.271Z,99.40
2023-01-17T16:56:09.122Z,99.60
2023-01-17T16:58:36.150Z,99.80
2023-01-17T17:01:03.118Z,99.90
2023-01-17T17:03:30.027Z,99.90
2023-01-17T17:05:58.801Z,99.90
2023-01-17T17:08:28.669Z,99.90
2023-01-17T17:11:05.994Z,99.90
2023-01-17T17:13:37.355Z,99.90
2023-01-17T17:16:33.972Z,99.90
2023-01-17T17:19:03.479Z,99.90
2023-01-17T17:21:32.447Z,99.90
2023-01-17T17:24:00.643Z,99.90
2023-01-17T17:26:30.918Z,99.90
2023-01-17T17:28:58.212Z,99.90
2023-01-17T17:31:25.228Z,99.90
2023-01-17T17:33:52.687Z,99.90
2023-01-17T17:36:19.535Z,99.90
2023-01-17T17:38:53.062Z,99.90
2023-01-17T17:41:27.861Z,99.90
2023-01-17T17:43:55.521Z,99.90
2023-01-17T17:46:24.173Z,99.90
2023-01-17T17:48:51.195Z,99.90
2023-01-17T17:51:27.849Z,99.90
2023-01-17T17:54:02.896Z,99.90
2023-01-17T17:56:31.183Z,99.90
2023-01-17T17:59:00.101Z,99.90
2023-01-17T18:01:27.584Z,99.90
2023-01-17T18:03:56.851Z,99.90
2023-01-17T18:06:24.211Z,99.90
2023-01-17T18:08:52.088Z,99.90
2023-01-17T18:11:22.563Z,99.90
2023-01-17T18:13:50.947Z,99.90
2023-01-17T18:16:22.589Z,99.90
2023-01-17T18:18:51.912Z,99.90
2023-01-17T18:21:23.640Z,99.90
2023-01-17T18:23:54.472Z,99.90
2023-01-17T18:26:24.759Z,99.90
2023-01-17T18:28:52.884Z,99.90
2023-01-17T18:31:20.242Z,99.90
2023-01-17T18:33:47.486Z,99.90
2023-01-17T18:36:14.504Z,99.90
2023-01-17T18:38:47.036Z,99.90
2023-01-17T18:41:23.160Z,99.90
2023-01-17T18:43:50.803Z,99.90
2023-01-17T18:46:19.483Z,99.90
2023-01-17T18:48:46.698Z,99.90
2023-01-17T18:51:18.649Z,99.90
2023-01-17T18:53:46.440Z,99.90
2023-01-17T18:56:21.616Z,99.90
2023-01-17T18:58:50.552Z,99.90
2023-01-17T19:01:20.694Z,99.90
2023-01-17T19:03:49.369Z,99.90
2023-01-17T19:06:19.705Z,99.90
2023-01-17T19:08:48.337Z,99.90
2023-01-17T19:11:15.348Z,99.90
2023-01-17T19:13:42.188Z,99.90
2023-01-17T19:16:13.922Z,99.90
2023-01-17T19:18:40.913Z,99.90
2023-01-17T19:21:13.342Z,99.90
2023-01-17T19:23:40.745Z,99.90
2023-01-17T19:26:08.919Z,99.90
2023-01-17T19:28:43.996Z,99.90
2023-01-17T19:31:18.097Z,99.90
2023-01-17T19:33:46.867Z,99.90
2023-01-17T19:36:19.579Z,99.90
2023-01-17T19:39:03.129Z,99.90
2023-01-17T19:41:32.561Z,99.90
2023-01-17T19:44:05.975Z,99.90
2023-01-17T19:46:33.550Z,99.90
2023-01-17T19:49:00.650Z,99.90
2023-01-17T19:51:27.770Z,99.90
2023-01-17T19:53:56.711Z,99.90
2023-01-17T19:56:25.959Z,99.90
2023-01-17T19:58:53.576Z,99.90
2023-01-17T20:01:27.971Z,99.90
2023-01-17T20:03:57.457Z,99.90
2023-01-17T20:06:28.625Z,99.90
2023-01-17T20:08:55.574Z,99.90
2023-01-17T20:11:24.598Z,99.90
2023-01-17T20:13:54.174Z,99.90
2023-01-17T20:16:22.073Z,99.90
2023-01-17T20:18:49.452Z,99.90
2023-01-17T20:21:22.443Z,99.90
2023-01-17T20:23:51.062Z,99.90
2023-01-17T20:26:21.743Z,99.90
2023-01-17T20:28:51.305Z,99.90
2023-01-17T20:31:22.223Z,99.90
2023-01-17T20:33:50.405Z,99.90
2023-01-17T20:36:18.936Z,99.90
2023-01-17T20:38:46.716Z,99.90
2023-01-17T20:41:18.076Z,99.90
2023-01-17T20:43:50.151Z,99.90
2023-01-17T20:46:18.449Z,99.90
2023-01-17T20:48:47.566Z,99.90
2023-01-17T20:51:15.698Z,99.90
2023-01-17T20:53:43.976Z,99.90
2023-01-17T20:56:14.055Z,99.90
2023-01-17T20:58:41.702Z,99.90
2023-01-17T21:01:13.451Z,99.90
2023-01-17T21:03:40.503Z,99.90
2023-01-17T21:06:09.955Z,99.90
2023-01-17T21:08:38.600Z,99.90
2023-01-17T21:11:06.589Z,99.90
2023-01-17T21:13:33.812Z,99.90
2023-01-17T21:16:01.192Z,99.90
2023-01-17T21:18:31.801Z,99.90
2023-01-17T21:21:08.417Z,99.90
2023-01-17T21:23:36.368Z,99.90
2023-01-17T21:26:04.186Z,99.90
2023-01-17T21:28:34.749Z,99.90
2023-01-17T21:31:17.103Z,99.90
2023-01-17T21:33:44.156Z,99.90
2023-01-17T21:36:11.073Z,99.90
2023-01-17T21:38:38.824Z,99.90
2023-01-17T21:41:05.885Z,99.90
2023-01-17T21:43:32.696Z,99.90
2023-01-17T21:46:03.241Z,99.90
2023-01-17T21:48:30.590Z,99.90
2023-01-17T21:51:04.262Z,99.90
2023-01-17T21:53:33.079Z,99.90
2023-01-17T21:56:23.820Z,99.90
2023-01-17T21:58:54.499Z,99.90
2023-01-17T22:01:23.549Z,99.90
2023-01-17T22:03:53.553Z,99.90
2023-01-17T22:06:22.245Z,99.90
2023-01-17T22:08:49.040Z,99.90
2023-01-17T22:11:18.161Z,99.90
2023-01-17T22:13:45.596Z,99.90
2023-01-17T22:16:17.128Z,99.90
2023-01-17T22:18:44.884Z,99.90
2023-01-17T22:21:16.643Z,99.90
2023-01-17T22:23:48.707Z,99.90
2023-01-17T22:26:16.117Z,99.90
2023-01-17T22:28:43.611Z,99.90
2023-01-17T22:31:20.707Z,99.90
2023-01-17T22:33:52.711Z,99.90
2023-01-17T22:36:20.128Z,99.90
2023-01-17T22:38:47.287Z,99.90
2023-01-17T22:41:16.759Z,99.90
2023-01-17T22:43:46.747Z,99.90
2023-01-17T22:46:16.876Z,99.90
2023-01-17T22:48:43.775Z,99.90
2023-01-17T22:51:14.595Z,99.90
2023-01-17T22:53:43.272Z,99.90
2023-01-17T22:56:12.664Z,99.90
2023-01-17T22:58:42.247Z,99.90
2023-01-17T23:01:13.502Z,99.90
2023-01-17T23:03:41.539Z,99.90
2023-01-17T23:06:19.160Z,99.90
2023-01-17T23:08:49.088Z,99.90
2023-01-17T23:11:43.811Z,99.90
2023-01-17T23:14:24.183Z,99.90
2023-01-17T23:17:18.511Z,99.90
2023-01-17T23:19:45.345Z,99.90
2023-01-17T23:22:21.410Z,99.90
2023-01-17T23:24:48.193Z,99.90
2023-01-17T23:27:36.579Z,99.90
2023-01-17T23:30:10.763Z,99.90
2023-01-17T23:32:48.157Z,99.90
2023-01-17T23:35:16.493Z,99.90
2023-01-17T23:38:02.000Z,99.90
2023-01-17T23:40:30.639Z,99.90
2023-01-17T23:43:15.907Z,99.90
2023-01-17T23:45:42.860Z,99.90
2023-01-17T23:48:10.625Z,99.90
2023-01-17T23:50:39.796Z,99.90
2023-01-17T23:53:08.106Z,99.90
2023-01-17T23:55:43.946Z,99.90
2023-01-17T23:58:12.524Z,99.90
